sensor_id;sensor_type;location;lat;lon;timestamp;temperature;humidity
9730;DHT22;4904;49.152;11.004;2022-08-01T00:01:21;22.60;99.90
9730;DHT22;4904;49.152;11.004;2022-08-01T00:03:48;22.60;99.90
9730;DHT22;4904;49.152;11.004;2022-08-01T00:06:15;22.70;99.90
9730;DHT22;4904;49.152;11.004;2022-08-01T00:08:42;22.60;99.90
9730;DHT22;4904;49.152;11.004;2022-08-01T00:11:09;22.60;99.90
9730;DHT22;4904;49.152;11.004;2022-08-01T00:13:36;22.70;99.90
9730;DHT22;4904;49.152;11.004;2022-08-01T00:16:04;22.70;99.90
9730;DHT22;4904;49.152;11.004;2022-08-01T00:18:33;22.70;99.90
9730;DHT22;4904;49.152;11.004;2022-08-01T00:21:01;22.70;99.90
9730;DHT22;4904;49.152;11.004;2022-08-01T00:23:28;22.70;99.90
9730;DHT22;4904;49.152;11.004;2022-08-01T00:25:55;22.70;99.90
9730;DHT22;4904;49.152;11.004;2022-08-01T00:28:22;22.70;99.90
9730;DHT22;4904;49.152;11.004;2022-08-01T00:30:49;22.70;99.90
9730;DHT22;4904;49.152;11.004;2022-08-01T00:33:16;22.70;99.90
9730;DHT22;4904;49.152;11.004;2022-08-01T00:35:44;22.70;99.90
9730;DHT22;4904;49.152;11.004;2022-08-01T00:38:11;22.60;99.90
9730;DHT22;4904;49.152;11.004;2022-08-01T00:40:38;22.60;99.90
9730;DHT22;4904;49.152;11.004;2022-08-01T00:43:05;22.50;99.90
9730;DHT22;4904;49.152;11.004;2022-08-01T00:45:33;22.50;99.90
9730;DHT22;4904;49.152;11.004;2022-08-01T00:47:59;22.40;99.90
9730;DHT22;4904;49.152;11.004;2022-08-01T00:50:27;22.40;99.90
9730;DHT22;4904;49.152;11.004;2022-08-01T00:52:55;22.40;99.90
9730;DHT22;4904;49.152;11.004;2022-08-01T00:55:24;22.40;99.90
9730;DHT22;4904;49.152;11.004;2022-08-01T00:57:51;22.30;99.90
9730;DHT22;4904;49.152;11.004;2022-08-01T01:00:18;22.30;99.90
9730;DHT22;4904;49.152;11.004;2022-08-01T01:02:45;22.30;99.90
9730;DHT22;4904;49.152;11.004;2022-08-01T01:05:12;22.20;99.90
9730;DHT22;4904;49.152;11.004;2022-08-01T01:07:45;22.20;99.90
9730;DHT22;4904;49.152;11.004;2022-08-01T01:10:20;22.20;99.90
9730;DHT22;4904;49.152;11.004;2022-08-01T01:12:54;22.10;99.90
9730;DHT22;4904;49.152;11.004;2022-08-01T01:15:28;22.10;99.90
9730;DHT22;4904;49.152;11.004;2022-08-01T01:18:02;22.10;99.90
9730;DHT22;4904;49.152;11.004;2022-08-01T01:20:33;22.10;99.90
9730;DHT22;4904;49.152;11.004;2022-08-01T01:23:15;22.00;99.90
9730;DHT22;4904;49.152;11.004;2022-08-01T01:26:00;22.00;99.90
9730;DHT22;4904;49.152;11.004;2022-08-01T01:28:33;22.00;99.90
9730;DHT22;4904;49.152;11.004;2022-08-01T01:31:07;22.00;99.90
9730;DHT22;4904;49.152;11.004;2022-08-01T01:33:36;21.90;99.90
9730;DHT22;4904;49.152;11.004;2022-08-01T01:36:08;21.90;99.90
9730;DHT22;4904;49.152;11.004;2022-08-01T01:38:39;21.80;99.90
9730;DHT22;4904;49.152;11.004;2022-08-01T01:41:11;21.80;99.90
9730;DHT22;4904;49.152;11.004;2022-08-01T01:43:40;21.80;99.90
9730;DHT22;4904;49.152;11.004;2022-08-01T01:46:10;21.70;99.90
9730;DHT22;4904;49.152;11.004;2022-08-01T01:48:38;21.70;99.90
9730;DHT22;4904;49.152;11.004;2022-08-01T01:51:07;21.80;99.90
9730;DHT22;4904;49.152;11.004;2022-08-01T01:53:35;21.70;99.90
9730;DHT22;4904;49.152;11.004;2022-08-01T01:56:03;21.70;99.90
9730;DHT22;4904;49.152;11.004;2022-08-01T01:58:33;21.70;99.90
9730;DHT22;4904;49.152;11.004;2022-08-01T02:01:01;21.70;99.90
9730;DHT22;4904;49.152;11.004;2022-08-01T02:03:30;21.60;99.90
9730;DHT22;4904;49.152;11.004;2022-08-01T02:05:59;21.60;99.90
9730;DHT22;4904;49.152;11.004;2022-08-01T02:08:29;21.60;99.90
9730;DHT22;4904;49.152;11.004;2022-08-01T02:10:57;21.60;99.90
9730;DHT22;4904;49.152;11.004;2022-08-01T02:13:42;21.60;99.90
9730;DHT22;4904;49.152;11.004;2022-08-01T02:16:10;21.70;99.90
9730;DHT22;4904;49.152;11.004;2022-08-01T02:18:39;21.70;99.90
9730;DHT22;4904;49.152;11.004;2022-08-01T02:21:09;21.70;99.90
9730;DHT22;4904;49.152;11.004;2022-08-01T02:23:39;21.70;99.90
9730;DHT22;4904;49.152;11.004;2022-08-01T02:26:09;21.60;99.90
9730;DHT22;4904;49.152;11.004;2022-08-01T02:28:43;21.60;99.90
9730;DHT22;4904;49.152;11.004;2022-08-01T02:31:13;21.60;99.90
9730;DHT22;4904;49.152;11.004;2022-08-01T02:33:48;21.70;99.90
9730;DHT22;4904;49.152;11.004;2022-08-01T02:36:19;21.60;99.90
9730;DHT22;4904;49.152;11.004;2022-08-01T02:38:47;21.60;99.90
9730;DHT22;4904;49.152;11.004;2022-08-01T02:41:20;21.70;99.90
9730;DHT22;4904;49.152;11.004;2022-08-01T02:43:51;21.60;99.90
9730;DHT22;4904;49.152;11.004;2022-08-01T02:46:22;21.60;99.90
9730;DHT22;4904;49.152;11.004;2022-08-01T02:48:53;21.60;99.90
9730;DHT22;4904;49.152;11.004;2022-08-01T02:51:23;21.60;99.90
9730;DHT22;4904;49.152;11.004;2022-08-01T02:53:53;21.60;99.90
9730;DHT22;4904;49.152;11.004;2022-08-01T02:56:22;21.60;99.90
9730;DHT22;4904;49.152;11.004;2022-08-01T02:59:01;21.60;99.90
9730;DHT22;4904;49.152;11.004;2022-08-01T03:01:29;21.50;99.90
9730;DHT22;4904;49.152;11.004;2022-08-01T03:03:59;21.60;99.90
9730;DHT22;4904;49.152;11.004;2022-08-01T03:06:26;21.50;99.90
9730;DHT22;4904;49.152;11.004;2022-08-01T03:08:55;21.50;99.90
9730;DHT22;4904;49.152;11.004;2022-08-01T03:11:24;21.50;99.90
9730;DHT22;4904;49.152;11.004;2022-08-01T03:13:52;21.50;99.90
9730;DHT22;4904;49.152;11.004;2022-08-01T03:16:21;21.50;99.90
9730;DHT22;4904;49.152;11.004;2022-08-01T03:18:51;21.40;99.90
9730;DHT22;4904;49.152;11.004;2022-08-01T03:21:20;21.40;99.90
9730;DHT22;4904;49.152;11.004;2022-08-01T03:23:50;21.30;99.90
9730;DHT22;4904;49.152;11.004;2022-08-01T03:26:24;21.30;99.90
9730;DHT22;4904;49.152;11.004;2022-08-01T03:28:54;21.20;99.90
9730;DHT22;4904;49.152;11.004;2022-08-01T03:31:24;21.10;99.90
9730;DHT22;4904;49.152;11.004;2022-08-01T03:33:51;21.10;99.90
9730;DHT22;4904;49.152;11.004;2022-08-01T03:36:22;21.10;99.90
9730;DHT22;4904;49.152;11.004;2022-08-01T03:38:52;21.00;99.90
9730;DHT22;4904;49.152;11.004;2022-08-01T03:41:24;21.00;99.90
9730;DHT22;4904;49.152;11.004;2022-08-01T03:43:57;21.00;99.90
9730;DHT22;4904;49.152;11.004;2022-08-01T03:46:29;20.90;99.90
9730;DHT22;4904;49.152;11.004;2022-08-01T03:49:03;20.90;99.90
9730;DHT22;4904;49.152;11.004;2022-08-01T03:51:34;20.80;99.90
9730;DHT22;4904;49.152;11.004;2022-08-01T03:54:04;20.80;99.90
9730;DHT22;4904;49.152;11.004;2022-08-01T03:56:32;20.80;99.90
9730;DHT22;4904;49.152;11.004;2022-08-01T03:59:01;20.80;99.90
9730;DHT22;4904;49.152;11.004;2022-08-01T04:01:31;20.80;99.90
9730;DHT22;4904;49.152;11.004;2022-08-01T04:03:59;20.80;99.90
9730;DHT22;4904;49.152;11.004;2022-08-01T04:06:27;20.80;99.90
9730;DHT22;4904;49.152;11.004;2022-08-01T04:08:55;20.70;99.90
9730;DHT22;4904;49.152;11.004;2022-08-01T04:11:24;20.70;99.90
9730;DHT22;4904;49.152;11.004;2022-08-01T04:13:52;20.70;99.90
9730;DHT22;4904;49.152;11.004;2022-08-01T04:16:19;20.60;99.90
9730;DHT22;4904;49.152;11.004;2022-08-01T04:18:47;20.60;99.90
9730;DHT22;4904;49.152;11.004;2022-08-01T04:21:14;20.60;99.90
9730;DHT22;4904;49.152;11.004;2022-08-01T04:23:43;20.60;99.90
9730;DHT22;4904;49.152;11.004;2022-08-01T04:26:14;20.50;99.90
9730;DHT22;4904;49.152;11.004;2022-08-01T04:28:42;20.60;99.90
9730;DHT22;4904;49.152;11.004;2022-08-01T04:31:11;20.60;99.90
9730;DHT22;4904;49.152;11.004;2022-08-01T04:33:42;20.50;99.90
9730;DHT22;4904;49.152;11.004;2022-08-01T04:36:13;20.50;99.90
9730;DHT22;4904;49.152;11.004;2022-08-01T04:38:42;20.40;99.90
9730;DHT22;4904;49.152;11.004;2022-08-01T04:41:13;19.90;99.90
9730;DHT22;4904;49.152;11.004;2022-08-01T04:43:41;19.80;99.90
9730;DHT22;4904;49.152;11.004;2022-08-01T04:46:08;19.90;99.90
9730;DHT22;4904;49.152;11.004;2022-08-01T04:48:38;20.00;99.90
9730;DHT22;4904;49.152;11.004;2022-08-01T04:51:11;20.10;99.90
9730;DHT22;4904;49.152;11.004;2022-08-01T04:53:40;20.30;99.90
9730;DHT22;4904;49.152;11.004;2022-08-01T04:56:07;20.30;99.90
9730;DHT22;4904;49.152;11.004;2022-08-01T04:58:36;20.40;99.90
9730;DHT22;4904;49.152;11.004;2022-08-01T05:01:03;20.50;99.90
9730;DHT22;4904;49.152;11.004;2022-08-01T05:03:29;20.40;99.90
9730;DHT22;4904;49.152;11.004;2022-08-01T05:05:56;20.40;99.90
9730;DHT22;4904;49.152;11.004;2022-08-01T05:08:23;20.40;99.90
9730;DHT22;4904;49.152;11.004;2022-08-01T05:10:50;20.50;99.90
9730;DHT22;4904;49.152;11.004;2022-08-01T05:13:18;20.60;99.90
9730;DHT22;4904;49.152;11.004;2022-08-01T05:15:46;20.70;99.90
9730;DHT22;4904;49.152;11.004;2022-08-01T05:18:13;20.70;99.90
9730;DHT22;4904;49.152;11.004;2022-08-01T05:20:40;20.80;99.90
9730;DHT22;4904;49.152;11.004;2022-08-01T05:23:08;20.80;99.90
9730;DHT22;4904;49.152;11.004;2022-08-01T05:25:34;20.80;99.90
9730;DHT22;4904;49.152;11.004;2022-08-01T05:28:01;20.80;99.90
9730;DHT22;4904;49.152;11.004;2022-08-01T05:30:28;20.90;99.90
9730;DHT22;4904;49.152;11.004;2022-08-01T05:32:57;20.90;99.90
9730;DHT22;4904;49.152;11.004;2022-08-01T05:35:24;20.90;99.90
9730;DHT22;4904;49.152;11.004;2022-08-01T05:37:51;20.90;99.90
9730;DHT22;4904;49.152;11.004;2022-08-01T05:40:17;21.00;99.90
9730;DHT22;4904;49.152;11.004;2022-08-01T05:42:44;21.10;99.90
9730;DHT22;4904;49.152;11.004;2022-08-01T05:45:11;21.00;99.90
9730;DHT22;4904;49.152;11.004;2022-08-01T05:47:38;21.00;99.90
9730;DHT22;4904;49.152;11.004;2022-08-01T05:50:08;21.00;99.90
9730;DHT22;4904;49.152;11.004;2022-08-01T05:52:35;21.10;99.90
9730;DHT22;4904;49.152;11.004;2022-08-01T05:55:02;21.10;99.90
9730;DHT22;4904;49.152;11.004;2022-08-01T05:57:30;21.20;99.90
9730;DHT22;4904;49.152;11.004;2022-08-01T05:59:57;21.20;99.90
9730;DHT22;4904;49.152;11.004;2022-08-01T06:02:24;21.20;99.90
9730;DHT22;4904;49.152;11.004;2022-08-01T06:04:51;21.30;99.90
9730;DHT22;4904;49.152;11.004;2022-08-01T06:07:19;21.30;99.90
9730;DHT22;4904;49.152;11.004;2022-08-01T06:09:46;21.40;99.90
9730;DHT22;4904;49.152;11.004;2022-08-01T06:12:13;21.40;99.90
9730;DHT22;4904;49.152;11.004;2022-08-01T06:14:40;21.50;99.90
9730;DHT22;4904;49.152;11.004;2022-08-01T06:17:07;21.60;99.90
9730;DHT22;4904;49.152;11.004;2022-08-01T06:19:34;21.50;99.90
9730;DHT22;4904;49.152;11.004;2022-08-01T06:22:01;21.50;99.90
9730;DHT22;4904;49.152;11.004;2022-08-01T06:24:30;21.60;99.90
9730;DHT22;4904;49.152;11.004;2022-08-01T06:26:57;21.70;99.90
9730;DHT22;4904;49.152;11.004;2022-08-01T06:29:23;21.60;99.90
9730;DHT22;4904;49.152;11.004;2022-08-01T06:31:51;21.60;99.90
9730;DHT22;4904;49.152;11.004;2022-08-01T06:34:18;21.70;99.90
9730;DHT22;4904;49.152;11.004;2022-08-01T06:36:46;21.70;99.90
9730;DHT22;4904;49.152;11.004;2022-08-01T06:39:13;21.80;99.90
9730;DHT22;4904;49.152;11.004;2022-08-01T06:41:41;21.80;99.90
9730;DHT22;4904;49.152;11.004;2022-08-01T06:44:11;21.80;99.90
9730;DHT22;4904;49.152;11.004;2022-08-01T06:46:38;21.80;99.90
9730;DHT22;4904;49.152;11.004;2022-08-01T06:49:05;21.80;99.90
9730;DHT22;4904;49.152;11.004;2022-08-01T06:51:32;21.90;99.90
9730;DHT22;4904;49.152;11.004;2022-08-01T06:53:59;22.10;99.90
9730;DHT22;4904;49.152;11.004;2022-08-01T06:56:26;22.20;99.90
9730;DHT22;4904;49.152;11.004;2022-08-01T06:58:55;22.30;99.90
9730;DHT22;4904;49.152;11.004;2022-08-01T07:01:26;22.40;99.90
9730;DHT22;4904;49.152;11.004;2022-08-01T07:03:53;22.50;99.90
9730;DHT22;4904;49.152;11.004;2022-08-01T07:06:20;22.70;99.90
9730;DHT22;4904;49.152;11.004;2022-08-01T07:08:47;22.70;99.90
9730;DHT22;4904;49.152;11.004;2022-08-01T07:11:14;22.70;99.90
9730;DHT22;4904;49.152;11.004;2022-08-01T07:13:41;22.70;99.90
9730;DHT22;4904;49.152;11.004;2022-08-01T07:16:12;22.70;99.90
9730;DHT22;4904;49.152;11.004;2022-08-01T07:18:39;22.80;99.90
9730;DHT22;4904;49.152;11.004;2022-08-01T07:21:06;22.80;99.90
9730;DHT22;4904;49.152;11.004;2022-08-01T07:23:33;22.80;99.90
9730;DHT22;4904;49.152;11.004;2022-08-01T07:26:00;22.80;99.90
9730;DHT22;4904;49.152;11.004;2022-08-01T07:28:28;22.90;99.90
9730;DHT22;4904;49.152;11.004;2022-08-01T07:30:55;22.90;99.90
9730;DHT22;4904;49.152;11.004;2022-08-01T07:33:23;23.00;99.90
9730;DHT22;4904;49.152;11.004;2022-08-01T07:35:50;23.00;99.90
9730;DHT22;4904;49.152;11.004;2022-08-01T07:38:17;23.00;99.90
9730;DHT22;4904;49.152;11.004;2022-08-01T07:40:44;23.10;99.90
9730;DHT22;4904;49.152;11.004;2022-08-01T07:43:11;23.20;99.90
9730;DHT22;4904;49.152;11.004;2022-08-01T07:45:39;23.40;99.90
9730;DHT22;4904;49.152;11.004;2022-08-01T07:48:07;23.60;99.90
9730;DHT22;4904;49.152;11.004;2022-08-01T07:50:35;23.70;99.90
9730;DHT22;4904;49.152;11.004;2022-08-01T07:53:02;23.80;99.90
9730;DHT22;4904;49.152;11.004;2022-08-01T07:55:30;23.70;99.90
9730;DHT22;4904;49.152;11.004;2022-08-01T07:57:57;23.50;99.90
9730;DHT22;4904;49.152;11.004;2022-08-01T08:00:24;23.30;99.90
9730;DHT22;4904;49.152;11.004;2022-08-01T08:02:53;23.30;99.90
9730;DHT22;4904;49.152;11.004;2022-08-01T08:05:20;23.30;99.90
9730;DHT22;4904;49.152;11.004;2022-08-01T08:07:49;23.40;99.90
9730;DHT22;4904;49.152;11.004;2022-08-01T08:10:16;23.60;99.90
9730;DHT22;4904;49.152;11.004;2022-08-01T08:12:43;23.70;99.90
9730;DHT22;4904;49.152;11.004;2022-08-01T08:15:11;23.70;99.90
9730;DHT22;4904;49.152;11.004;2022-08-01T08:17:38;23.90;99.90
9730;DHT22;4904;49.152;11.004;2022-08-01T08:20:07;23.80;99.90
9730;DHT22;4904;49.152;11.004;2022-08-01T08:22:34;23.80;99.90
9730;DHT22;4904;49.152;11.004;2022-08-01T08:25:03;23.90;99.90
9730;DHT22;4904;49.152;11.004;2022-08-01T08:27:30;24.00;99.90
9730;DHT22;4904;49.152;11.004;2022-08-01T08:29:57;24.10;99.90
9730;DHT22;4904;49.152;11.004;2022-08-01T08:32:24;24.20;99.90
9730;DHT22;4904;49.152;11.004;2022-08-01T08:34:51;24.30;99.90
9730;DHT22;4904;49.152;11.004;2022-08-01T08:37:18;24.10;99.90
9730;DHT22;4904;49.152;11.004;2022-08-01T08:39:45;24.20;99.90
9730;DHT22;4904;49.152;11.004;2022-08-01T08:42:14;24.40;99.90
9730;DHT22;4904;49.152;11.004;2022-08-01T08:44:41;24.40;99.90
9730;DHT22;4904;49.152;11.004;2022-08-01T08:47:11;24.30;99.90
9730;DHT22;4904;49.152;11.004;2022-08-01T08:49:38;24.40;99.90
9730;DHT22;4904;49.152;11.004;2022-08-01T08:52:06;24.40;99.90
9730;DHT22;4904;49.152;11.004;2022-08-01T08:54:35;24.40;99.90
9730;DHT22;4904;49.152;11.004;2022-08-01T08:57:04;24.40;99.90
9730;DHT22;4904;49.152;11.004;2022-08-01T08:59:33;24.40;99.90
9730;DHT22;4904;49.152;11.004;2022-08-01T09:02:01;24.30;99.90
9730;DHT22;4904;49.152;11.004;2022-08-01T09:04:30;24.20;99.90
9730;DHT22;4904;49.152;11.004;2022-08-01T09:06:57;24.20;99.90
9730;DHT22;4904;49.152;11.004;2022-08-01T09:09:24;24.20;99.90
9730;DHT22;4904;49.152;11.004;2022-08-01T09:11:51;24.30;99.90
9730;DHT22;4904;49.152;11.004;2022-08-01T09:14:20;24.40;99.90
9730;DHT22;4904;49.152;11.004;2022-08-01T09:17:03;24.40;99.90
9730;DHT22;4904;49.152;11.004;2022-08-01T09:19:36;24.20;99.90
9730;DHT22;4904;49.152;11.004;2022-08-01T09:22:05;24.20;99.90
9730;DHT22;4904;49.152;11.004;2022-08-01T09:24:33;24.10;99.90
9730;DHT22;4904;49.152;11.004;2022-08-01T09:27:01;24.20;99.90
9730;DHT22;4904;49.152;11.004;2022-08-01T09:29:41;24.20;99.90
9730;DHT22;4904;49.152;11.004;2022-08-01T09:32:11;24.20;99.90
9730;DHT22;4904;49.152;11.004;2022-08-01T09:34:38;24.30;99.90
9730;DHT22;4904;49.152;11.004;2022-08-01T09:37:05;24.40;99.90
9730;DHT22;4904;49.152;11.004;2022-08-01T09:39:35;24.80;99.90
9730;DHT22;4904;49.152;11.004;2022-08-01T09:42:19;24.80;99.90
9730;DHT22;4904;49.152;11.004;2022-08-01T09:44:46;24.70;99.90
9730;DHT22;4904;49.152;11.004;2022-08-01T09:47:15;24.70;99.90
9730;DHT22;4904;49.152;11.004;2022-08-01T09:49:44;24.60;99.90
9730;DHT22;4904;49.152;11.004;2022-08-01T09:52:13;24.50;99.90
9730;DHT22;4904;49.152;11.004;2022-08-01T09:54:41;24.50;99.90
9730;DHT22;4904;49.152;11.004;2022-08-01T09:57:11;24.60;99.90
9730;DHT22;4904;49.152;11.004;2022-08-01T09:59:40;24.50;99.90
9730;DHT22;4904;49.152;11.004;2022-08-01T10:02:09;24.50;99.90
9730;DHT22;4904;49.152;11.004;2022-08-01T10:04:46;24.50;99.90
9730;DHT22;4904;49.152;11.004;2022-08-01T10:07:13;24.70;99.90
9730;DHT22;4904;49.152;11.004;2022-08-01T10:09:41;25.00;99.90
9730;DHT22;4904;49.152;11.004;2022-08-01T10:12:09;25.40;99.90
9730;DHT22;4904;49.152;11.004;2022-08-01T10:14:38;25.40;99.90
9730;DHT22;4904;49.152;11.004;2022-08-01T10:17:07;25.40;99.90
9730;DHT22;4904;49.152;11.004;2022-08-01T10:19:35;25.30;99.90
9730;DHT22;4904;49.152;11.004;2022-08-01T10:22:07;25.20;99.90
9730;DHT22;4904;49.152;11.004;2022-08-01T10:24:37;25.20;99.90
9730;DHT22;4904;49.152;11.004;2022-08-01T10:27:07;25.10;99.90
9730;DHT22;4904;49.152;11.004;2022-08-01T10:29:49;25.00;99.90
9730;DHT22;4904;49.152;11.004;2022-08-01T10:32:17;25.10;99.90
9730;DHT22;4904;49.152;11.004;2022-08-01T10:34:45;25.30;99.90
9730;DHT22;4904;49.152;11.004;2022-08-01T10:37:14;25.50;99.90
9730;DHT22;4904;49.152;11.004;2022-08-01T10:39:43;25.70;99.90
9730;DHT22;4904;49.152;11.004;2022-08-01T10:42:11;25.70;99.90
9730;DHT22;4904;49.152;11.004;2022-08-01T10:44:39;25.50;99.90
9730;DHT22;4904;49.152;11.004;2022-08-01T10:47:09;25.30;99.90
9730;DHT22;4904;49.152;11.004;2022-08-01T10:49:41;25.20;99.90
9730;DHT22;4904;49.152;11.004;2022-08-01T10:52:15;25.20;99.90
9730;DHT22;4904;49.152;11.004;2022-08-01T10:54:42;25.10;99.90
9730;DHT22;4904;49.152;11.004;2022-08-01T10:57:09;25.00;99.90
9730;DHT22;4904;49.152;11.004;2022-08-01T10:59:48;25.10;99.90
9730;DHT22;4904;49.152;11.004;2022-08-01T11:02:26;25.40;99.90
9730;DHT22;4904;49.152;11.004;2022-08-01T11:04:57;25.60;99.90
9730;DHT22;4904;49.152;11.004;2022-08-01T11:07:42;25.70;99.90
9730;DHT22;4904;49.152;11.004;2022-08-01T11:10:19;25.40;99.90
9730;DHT22;4904;49.152;11.004;2022-08-01T11:12:48;25.40;99.90
9730;DHT22;4904;49.152;11.004;2022-08-01T11:15:23;25.50;99.90
9730;DHT22;4904;49.152;11.004;2022-08-01T11:17:59;25.60;99.90
9730;DHT22;4904;49.152;11.004;2022-08-01T11:20:27;25.60;99.90
9730;DHT22;4904;49.152;11.004;2022-08-01T11:23:17;25.70;99.90
9730;DHT22;4904;49.152;11.004;2022-08-01T11:29:11;25.60;99.90
9730;DHT22;4904;49.152;11.004;2022-08-01T11:31:38;25.70;99.90
9730;DHT22;4904;49.152;11.004;2022-08-01T11:34:06;25.80;99.90
9730;DHT22;4904;49.152;11.004;2022-08-01T11:36:33;26.00;99.90
9730;DHT22;4904;49.152;11.004;2022-08-01T11:39:18;26.00;99.90
9730;DHT22;4904;49.152;11.004;2022-08-01T11:41:46;25.70;99.90
9730;DHT22;4904;49.152;11.004;2022-08-01T11:44:19;25.80;99.90
9730;DHT22;4904;49.152;11.004;2022-08-01T11:47:09;25.80;99.90
9730;DHT22;4904;49.152;11.004;2022-08-01T11:49:48;25.80;99.90
9730;DHT22;4904;49.152;11.004;2022-08-01T11:52:24;25.80;99.90
9730;DHT22;4904;49.152;11.004;2022-08-01T11:54:55;26.10;99.90
9730;DHT22;4904;49.152;11.004;2022-08-01T11:57:24;26.30;99.90
9730;DHT22;4904;49.152;11.004;2022-08-01T11:59:53;26.60;99.90
9730;DHT22;4904;49.152;11.004;2022-08-01T12:02:22;26.90;99.90
9730;DHT22;4904;49.152;11.004;2022-08-01T12:04:54;26.90;99.90
9730;DHT22;4904;49.152;11.004;2022-08-01T12:07:23;26.60;99.90
9730;DHT22;4904;49.152;11.004;2022-08-01T12:09:59;26.40;99.90
9730;DHT22;4904;49.152;11.004;2022-08-01T12:12:28;26.30;99.90
9730;DHT22;4904;49.152;11.004;2022-08-01T12:14:57;26.30;99.90
9730;DHT22;4904;49.152;11.004;2022-08-01T12:17:29;26.20;99.90
9730;DHT22;4904;49.152;11.004;2022-08-01T12:19:56;26.20;99.90
9730;DHT22;4904;49.152;11.004;2022-08-01T12:22:24;26.40;99.90
9730;DHT22;4904;49.152;11.004;2022-08-01T12:24:52;26.60;99.90
9730;DHT22;4904;49.152;11.004;2022-08-01T12:27:28;26.90;99.90
9730;DHT22;4904;49.152;11.004;2022-08-01T12:29:56;27.10;99.90
9730;DHT22;4904;49.152;11.004;2022-08-01T12:32:26;27.20;99.90
9730;DHT22;4904;49.152;11.004;2022-08-01T12:34:55;27.30;99.90
9730;DHT22;4904;49.152;11.004;2022-08-01T12:37:23;27.00;99.90
9730;DHT22;4904;49.152;11.004;2022-08-01T12:39:50;26.90;99.90
9730;DHT22;4904;49.152;11.004;2022-08-01T12:42:17;26.90;99.90
9730;DHT22;4904;49.152;11.004;2022-08-01T12:44:48;27.00;99.90
9730;DHT22;4904;49.152;11.004;2022-08-01T12:47:17;27.20;99.90
9730;DHT22;4904;49.152;11.004;2022-08-01T12:49:45;27.40;99.90
9730;DHT22;4904;49.152;11.004;2022-08-01T12:52:13;27.50;99.90
9730;DHT22;4904;49.152;11.004;2022-08-01T12:55:03;27.60;99.90
9730;DHT22;4904;49.152;11.004;2022-08-01T12:57:31;27.40;99.90
9730;DHT22;4904;49.152;11.004;2022-08-01T13:00:19;27.50;99.90
9730;DHT22;4904;49.152;11.004;2022-08-01T13:02:49;27.60;99.90
9730;DHT22;4904;49.152;11.004;2022-08-01T13:05:16;27.50;99.90
9730;DHT22;4904;49.152;11.004;2022-08-01T13:07:46;27.50;99.90
9730;DHT22;4904;49.152;11.004;2022-08-01T13:10:23;27.50;99.90
9730;DHT22;4904;49.152;11.004;2022-08-01T13:12:54;27.60;99.90
9730;DHT22;4904;49.152;11.004;2022-08-01T13:15:26;27.70;99.90
9730;DHT22;4904;49.152;11.004;2022-08-01T13:17:54;27.80;99.90
9730;DHT22;4904;49.152;11.004;2022-08-01T13:20:23;27.80;99.90
9730;DHT22;4904;49.152;11.004;2022-08-01T13:22:50;27.70;99.90
9730;DHT22;4904;49.152;11.004;2022-08-01T13:25:18;27.80;99.90
9730;DHT22;4904;49.152;11.004;2022-08-01T13:27:45;27.70;99.90
9730;DHT22;4904;49.152;11.004;2022-08-01T13:30:13;27.80;99.90
9730;DHT22;4904;49.152;11.004;2022-08-01T13:32:42;27.90;99.90
9730;DHT22;4904;49.152;11.004;2022-08-01T13:35:12;28.00;99.90
9730;DHT22;4904;49.152;11.004;2022-08-01T13:37:40;28.00;99.90
9730;DHT22;4904;49.152;11.004;2022-08-01T13:40:10;28.10;99.90
9730;DHT22;4904;49.152;11.004;2022-08-01T13:42:37;28.20;99.90
9730;DHT22;4904;49.152;11.004;2022-08-01T13:45:05;28.10;99.90
9730;DHT22;4904;49.152;11.004;2022-08-01T13:47:36;28.00;99.90
9730;DHT22;4904;49.152;11.004;2022-08-01T13:50:05;27.80;99.90
9730;DHT22;4904;49.152;11.004;2022-08-01T13:52:32;28.00;99.90
9730;DHT22;4904;49.152;11.004;2022-08-01T13:54:59;28.00;99.90
9730;DHT22;4904;49.152;11.004;2022-08-01T13:57:27;28.00;99.90
9730;DHT22;4904;49.152;11.004;2022-08-01T13:59:54;27.90;99.90
9730;DHT22;4904;49.152;11.004;2022-08-01T14:02:23;27.90;99.90
9730;DHT22;4904;49.152;11.004;2022-08-01T14:04:50;27.90;99.90
9730;DHT22;4904;49.152;11.004;2022-08-01T14:07:19;28.00;99.90
9730;DHT22;4904;49.152;11.004;2022-08-01T14:09:46;28.00;99.90
9730;DHT22;4904;49.152;11.004;2022-08-01T14:12:13;28.00;99.90
9730;DHT22;4904;49.152;11.004;2022-08-01T14:14:40;28.00;99.90
9730;DHT22;4904;49.152;11.004;2022-08-01T14:17:07;28.10;99.90
9730;DHT22;4904;49.152;11.004;2022-08-01T14:19:34;28.00;99.90
9730;DHT22;4904;49.152;11.004;2022-08-01T14:22:01;27.90;99.90
9730;DHT22;4904;49.152;11.004;2022-08-01T14:24:29;27.80;99.90
9730;DHT22;4904;49.152;11.004;2022-08-01T14:26:56;27.60;99.90
9730;DHT22;4904;49.152;11.004;2022-08-01T14:29:23;27.80;99.90
9730;DHT22;4904;49.152;11.004;2022-08-01T14:31:50;27.90;99.90
9730;DHT22;4904;49.152;11.004;2022-08-01T14:34:17;28.10;99.90
9730;DHT22;4904;49.152;11.004;2022-08-01T14:36:44;28.10;99.90
9730;DHT22;4904;49.152;11.004;2022-08-01T14:39:12;28.20;99.90
9730;DHT22;4904;49.152;11.004;2022-08-01T14:41:40;28.40;99.90
9730;DHT22;4904;49.152;11.004;2022-08-01T14:44:07;28.70;99.90
9730;DHT22;4904;49.152;11.004;2022-08-01T14:46:34;28.60;99.90
9730;DHT22;4904;49.152;11.004;2022-08-01T14:49:01;28.50;99.90
9730;DHT22;4904;49.152;11.004;2022-08-01T14:51:28;28.50;99.90
9730;DHT22;4904;49.152;11.004;2022-08-01T14:53:58;28.50;99.90
9730;DHT22;4904;49.152;11.004;2022-08-01T14:56:25;28.60;99.90
9730;DHT22;4904;49.152;11.004;2022-08-01T14:58:54;28.60;99.90
9730;DHT22;4904;49.152;11.004;2022-08-01T15:01:21;28.50;99.90
9730;DHT22;4904;49.152;11.004;2022-08-01T15:03:48;28.40;99.90
9730;DHT22;4904;49.152;11.004;2022-08-01T15:06:16;28.40;99.90
9730;DHT22;4904;49.152;11.004;2022-08-01T15:08:43;28.40;99.90
9730;DHT22;4904;49.152;11.004;2022-08-01T15:11:10;28.40;99.90
9730;DHT22;4904;49.152;11.004;2022-08-01T15:13:37;28.20;99.90
9730;DHT22;4904;49.152;11.004;2022-08-01T15:16:06;27.80;99.90
9730;DHT22;4904;49.152;11.004;2022-08-01T15:18:33;27.70;99.90
9730;DHT22;4904;49.152;11.004;2022-08-01T15:21:00;27.50;99.90
9730;DHT22;4904;49.152;11.004;2022-08-01T15:23:27;27.50;99.90
9730;DHT22;4904;49.152;11.004;2022-08-01T15:25:54;27.60;99.90
9730;DHT22;4904;49.152;11.004;2022-08-01T15:28:21;27.60;99.90
9730;DHT22;4904;49.152;11.004;2022-08-01T15:30:48;27.80;99.90
9730;DHT22;4904;49.152;11.004;2022-08-01T15:33:16;28.00;99.90
9730;DHT22;4904;49.152;11.004;2022-08-01T15:35:43;28.10;99.90
9730;DHT22;4904;49.152;11.004;2022-08-01T15:38:10;28.20;99.90
9730;DHT22;4904;49.152;11.004;2022-08-01T15:40:37;28.20;99.90
9730;DHT22;4904;49.152;11.004;2022-08-01T15:43:04;28.20;99.90
9730;DHT22;4904;49.152;11.004;2022-08-01T15:45:31;28.10;99.90
9730;DHT22;4904;49.152;11.004;2022-08-01T15:47:58;28.00;99.90
9730;DHT22;4904;49.152;11.004;2022-08-01T15:50:26;28.00;99.90
9730;DHT22;4904;49.152;11.004;2022-08-01T15:52:53;27.90;99.90
9730;DHT22;4904;49.152;11.004;2022-08-01T15:55:20;28.00;99.90
9730;DHT22;4904;49.152;11.004;2022-08-01T15:57:47;28.20;99.90
9730;DHT22;4904;49.152;11.004;2022-08-01T16:00:14;28.40;99.90